createdAt,value
2023-04-16T00:00:21.432Z,9.18
2023-04-16T00:02:48.091Z,9.58
2023-04-16T00:05:15.776Z,9.79
2023-04-16T00:07:42.364Z,9.70
2023-04-16T00:10:08.916Z,9.54
2023-04-16T00:12:35.409Z,9.49
2023-04-16T00:15:02.458Z,10.44
2023-04-16T00:17:29.055Z,11.12
2023-04-16T00:19:55.745Z,11.44
2023-04-16T00:22:22.371Z,11.69
2023-04-16T00:24:48.907Z,11.76
2023-04-16T00:27:15.443Z,11.98
2023-04-16T00:29:42.195Z,11.68
2023-04-16T00:32:08.770Z,10.54
2023-04-16T00:34:35.276Z,10.23
2023-04-16T00:37:01.861Z,10.02
2023-04-16T00:39:28.475Z,10.27
2023-04-16T00:41:55.137Z,11.08
2023-04-16T00:44:21.670Z,11.60
2023-04-16T00:46:48.342Z,11.97
2023-04-16T00:49:15.246Z,11.68
2023-04-16T00:51:42.124Z,11.78
2023-04-16T00:54:08.684Z,11.33
2023-04-16T00:56:35.513Z,10.85
2023-04-16T00:59:03.079Z,10.88
2023-04-16T01:01:29.734Z,10.30
2023-04-16T01:03:56.709Z,10.20
2023-04-16T01:06:23.350Z,9.96
2023-04-16T01:08:49.853Z,9.90
2023-04-16T01:11:16.436Z,10.48
2023-04-16T01:13:43.177Z,11.12
2023-04-16T01:16:09.766Z,11.47
2023-04-16T01:18:36.391Z,11.79
2023-04-16T01:21:02.954Z,12.04
2023-04-16T01:23:29.530Z,12.15
2023-04-16T01:25:56.182Z,12.31
2023-04-16T01:28:23.037Z,12.23
2023-04-16T01:30:49.896Z,12.20
2023-04-16T01:33:16.371Z,12.37
2023-04-16T01:35:45.652Z,12.28
2023-04-16T01:38:12.415Z,12.16
2023-04-16T01:40:40.052Z,12.28
2023-04-16T01:43:06.674Z,12.50
2023-04-16T01:45:33.259Z,12.37
2023-04-16T01:47:59.819Z,12.57
2023-04-16T01:50:26.631Z,12.65
2023-04-16T01:52:53.203Z,12.63
2023-04-16T01:55:19.786Z,12.17
2023-04-16T01:57:46.306Z,12.16
2023-04-16T02:00:13.149Z,12.52
2023-04-16T02:02:39.846Z,12.58
2023-04-16T02:05:06.438Z,12.70
2023-04-16T02:07:32.944Z,12.70
2023-04-16T02:10:00.213Z,12.74
2023-04-16T02:12:27.104Z,12.71
2023-04-16T02:14:53.598Z,12.76
2023-04-16T02:17:22.043Z,12.86
2023-04-16T02:19:48.599Z,12.90
2023-04-16T02:22:16.305Z,12.64
2023-04-16T02:24:42.847Z,12.64
2023-04-16T02:27:10.818Z,12.84
2023-04-16T02:29:37.397Z,12.84
2023-04-16T02:32:04.295Z,12.75
2023-04-16T02:34:30.784Z,12.80
2023-04-16T02:36:57.341Z,12.38
2023-04-16T02:39:23.943Z,12.29
2023-04-16T02:44:45.758Z,11.72
2023-04-16T02:47:12.310Z,11.49
2023-04-16T02:49:38.964Z,12.03
2023-04-16T02:52:07.952Z,12.30
2023-04-16T02:54:34.544Z,12.52
2023-04-16T02:57:07.188Z,12.60
2023-04-16T02:59:34.736Z,12.69
2023-04-16T03:02:01.287Z,12.60
2023-04-16T03:04:28.108Z,11.99
2023-04-16T03:06:54.699Z,12.23
2023-04-16T03:09:21.248Z,11.86
2023-04-16T03:11:48.092Z,11.88
2023-04-16T03:14:15.978Z,12.17
2023-04-16T03:16:42.546Z,12.27
2023-04-16T03:19:09.303Z,12.44
2023-04-16T03:21:38.469Z,12.54
2023-04-16T03:24:05.009Z,12.46
2023-04-16T03:26:32.287Z,12.49
2023-04-16T03:28:58.838Z,12.60
2023-04-16T03:31:25.454Z,12.52
2023-04-16T03:33:53.095Z,12.21
2023-04-16T03:36:20.355Z,11.91
2023-04-16T03:38:46.975Z,11.69
2023-04-16T03:41:16.396Z,12.04
2023-04-16T03:43:43.000Z,12.13
2023-04-16T03:46:09.552Z,12.11
2023-04-16T03:48:36.431Z,12.27
2023-04-16T03:51:02.962Z,12.44
2023-04-16T03:53:29.538Z,12.36
2023-04-16T03:55:56.091Z,12.55
2023-04-16T03:58:22.877Z,12.64
2023-04-16T04:00:49.816Z,12.67
2023-04-16T04:03:16.702Z,12.64
2023-04-16T04:05:43.507Z,12.56
2023-04-16T04:08:11.801Z,12.70
2023-04-16T04:10:38.462Z,12.64
2023-04-16T04:13:05.054Z,12.44
2023-04-16T04:15:33.789Z,12.55
2023-04-16T04:18:00.376Z,12.52
2023-04-16T04:20:26.985Z,12.65
2023-04-16T04:22:53.806Z,12.44
2023-04-16T04:25:20.354Z,12.24
2023-04-16T04:27:46.921Z,12.44
2023-04-16T04:30:13.359Z,12.53
2023-04-16T04:32:40.660Z,12.63
2023-04-16T04:35:07.206Z,12.53
2023-04-16T04:37:33.951Z,12.30
2023-04-16T04:40:01.337Z,12.46
2023-04-16T04:42:27.937Z,12.64
2023-04-16T04:44:54.395Z,12.72
2023-04-16T04:47:21.194Z,12.69
2023-04-16T04:49:48.571Z,12.77
2023-04-16T04:52:15.128Z,12.78
2023-04-16T04:54:41.907Z,12.81
2023-04-16T04:57:08.467Z,12.73
2023-04-16T04:59:37.222Z,12.25
2023-04-16T05:02:03.829Z,11.57
2023-04-16T05:04:30.630Z,12.25
2023-04-16T05:06:57.145Z,12.47
2023-04-16T05:09:23.729Z,12.63
2023-04-16T05:14:52.908Z,12.21
2023-04-16T05:17:19.589Z,12.18
2023-04-16T05:19:47.166Z,12.33
2023-04-16T05:22:13.867Z,12.41
2023-04-16T05:24:42.622Z,12.11
2023-04-16T05:27:09.190Z,11.59
2023-04-16T05:29:35.751Z,12.08
2023-04-16T05:32:02.671Z,12.28
2023-04-16T05:34:29.130Z,12.20
2023-04-16T05:36:55.696Z,12.17
2023-04-16T05:39:23.527Z,12.11
2023-04-16T05:41:50.061Z,12.36
2023-04-16T05:44:16.911Z,12.56
2023-04-16T05:46:45.482Z,12.64
2023-04-16T05:49:12.873Z,12.85
2023-04-16T05:51:40.123Z,12.91
2023-04-16T05:54:06.858Z,12.95
2023-04-16T05:56:35.851Z,13.03
2023-04-16T05:59:03.206Z,12.72
2023-04-16T06:01:29.899Z,12.85
2023-04-16T06:03:56.895Z,12.94
2023-04-16T06:06:23.728Z,13.09
2023-04-16T06:08:50.335Z,12.92
2023-04-16T06:11:17.193Z,13.11
2023-04-16T06:13:43.757Z,13.07
2023-04-16T06:16:10.358Z,13.15
2023-04-16T06:18:46.870Z,12.68
2023-04-16T06:21:13.476Z,12.31
2023-04-16T06:23:39.954Z,12.03
2023-04-16T06:26:06.729Z,11.89
2023-04-16T06:28:33.238Z,12.65
2023-04-16T06:31:00.113Z,12.76
2023-04-16T06:33:26.950Z,12.90
2023-04-16T06:35:54.568Z,13.12
2023-04-16T06:38:21.161Z,13.15
2023-04-16T06:40:47.689Z,13.17
2023-04-16T06:43:14.263Z,13.11
2023-04-16T06:45:40.863Z,13.27
2023-04-16T06:48:10.370Z,13.44
2023-04-16T06:50:39.409Z,13.59
2023-04-16T06:53:06.108Z,13.65
2023-04-16T06:55:32.859Z,13.43
2023-04-16T06:57:59.708Z,13.63
2023-04-16T07:00:26.253Z,13.72
2023-04-16T07:02:57.090Z,13.73
2023-04-16T07:05:25.153Z,13.44
2023-04-16T07:07:51.684Z,13.55
2023-04-16T07:10:20.476Z,13.67
2023-04-16T07:12:49.220Z,13.82
2023-04-16T07:15:15.763Z,13.60
2023-04-16T07:17:44.712Z,13.69
2023-04-16T07:20:11.601Z,13.42
2023-04-16T07:22:38.447Z,13.61
2023-04-16T07:25:04.913Z,13.45
2023-04-16T07:27:32.130Z,13.53
2023-04-16T07:29:58.997Z,13.48
2023-04-16T07:32:28.066Z,13.28
2023-04-16T07:34:54.955Z,13.68
2023-04-16T07:37:21.771Z,13.82
2023-04-16T07:39:48.583Z,13.90
2023-04-16T07:44:59.299Z,13.85
2023-04-16T07:47:25.849Z,13.54
2023-04-16T07:49:52.668Z,13.59
2023-04-16T07:52:19.155Z,13.75
2023-04-16T07:54:45.864Z,13.75
2023-04-16T07:57:12.724Z,13.43
2023-04-16T07:59:40.237Z,13.72
2023-04-16T08:02:07.123Z,13.91
2023-04-16T08:04:34.181Z,14.08
2023-04-16T08:07:00.860Z,14.06
2023-04-16T08:09:27.428Z,13.53
2023-04-16T08:11:54.222Z,13.62
2023-04-16T08:14:20.852Z,13.85
2023-04-16T08:16:48.416Z,14.03
2023-04-16T08:19:15.066Z,14.17
2023-04-16T08:21:41.592Z,14.32
2023-04-16T08:24:08.471Z,14.23
2023-04-16T08:26:36.012Z,14.29
2023-04-16T08:29:02.615Z,14.07
2023-04-16T08:31:29.428Z,13.26
2023-04-16T08:33:56.397Z,13.37
2023-04-16T08:36:23.009Z,13.99
2023-04-16T08:38:49.762Z,14.04
2023-04-16T08:41:16.524Z,14.19
2023-04-16T08:43:44.089Z,14.25
2023-04-16T08:46:12.511Z,14.13
2023-04-16T08:48:39.070Z,14.11
2023-04-16T08:51:05.872Z,14.33
2023-04-16T08:53:32.695Z,14.48
2023-04-16T08:55:59.282Z,14.46
2023-04-16T08:58:26.501Z,14.60
2023-04-16T09:00:53.013Z,14.74
2023-04-16T09:03:20.116Z,14.64
2023-04-16T09:05:46.785Z,14.69
2023-04-16T09:08:13.295Z,14.51
2023-04-16T09:10:40.120Z,14.25
2023-04-16T09:13:06.716Z,13.73
2023-04-16T09:15:35.001Z,13.54
2023-04-16T09:18:01.803Z,13.55
2023-04-16T09:20:28.678Z,13.82
2023-04-16T09:22:57.363Z,13.83
2023-04-16T09:25:24.200Z,13.53
2023-04-16T09:27:50.665Z,13.52
2023-04-16T09:30:18.193Z,13.43
2023-04-16T09:32:44.748Z,13.84
2023-04-16T09:35:11.260Z,14.40
2023-04-16T09:37:37.857Z,14.52
2023-04-16T09:40:04.465Z,14.88
2023-04-16T09:42:31.093Z,15.12
2023-04-16T09:45:00.322Z,15.15
2023-04-16T09:47:32.930Z,14.82
2023-04-16T09:49:59.804Z,14.52
2023-04-16T09:52:29.010Z,14.79
2023-04-16T09:54:55.791Z,14.82
2023-04-16T09:57:22.605Z,14.42
2023-04-16T09:59:49.932Z,14.19
2023-04-16T10:02:16.739Z,13.85
2023-04-16T10:04:43.816Z,14.46
2023-04-16T10:07:10.399Z,14.66
2023-04-16T10:09:37.013Z,14.73
2023-04-16T10:12:03.897Z,14.49
2023-04-16T10:14:32.198Z,14.81
2023-04-16T10:16:58.806Z,15.12
2023-04-16T10:19:26.049Z,14.80
2023-04-16T10:21:54.954Z,15.08
2023-04-16T10:24:21.776Z,14.93
2023-04-16T10:26:48.199Z,15.09
2023-04-16T10:29:14.996Z,15.31
2023-04-16T10:31:42.314Z,15.45
2023-04-16T10:34:10.824Z,15.40
2023-04-16T10:36:37.431Z,15.14
2023-04-16T10:39:04.237Z,14.99
2023-04-16T10:41:30.815Z,14.51
2023-04-16T10:44:00.180Z,14.97
2023-04-16T10:46:26.927Z,15.21
2023-04-16T10:48:53.916Z,15.33
2023-04-16T10:51:20.554Z,15.34
2023-04-16T10:53:47.286Z,14.79
2023-04-16T10:56:13.858Z,14.79
2023-04-16T10:58:40.461Z,14.93
2023-04-16T11:01:07.225Z,14.73
2023-04-16T11:03:34.117Z,14.81
2023-04-16T11:06:00.815Z,15.21
2023-04-16T11:08:27.595Z,15.24
2023-04-16T11:10:55.839Z,15.32
2023-04-16T11:13:22.419Z,15.09
2023-04-16T11:15:49.824Z,15.21
2023-04-16T11:18:16.471Z,15.15
2023-04-16T11:20:45.515Z,15.08
2023-04-16T11:23:12.161Z,15.01
2023-04-16T11:25:39.658Z,14.97
2023-04-16T11:28:06.271Z,15.19
2023-04-16T11:30:33.180Z,15.40
2023-04-16T11:33:02.193Z,15.52
2023-04-16T11:35:28.803Z,15.53
2023-04-16T11:37:57.752Z,14.60
2023-04-16T11:40:24.343Z,15.25
2023-04-16T11:42:51.098Z,14.91
2023-04-16T11:45:19.992Z,15.23
2023-04-16T11:47:46.615Z,15.49
2023-04-16T11:50:13.178Z,15.39
2023-04-16T11:52:39.792Z,14.99
2023-04-16T11:55:08.836Z,15.20
2023-04-16T11:57:35.371Z,15.79
2023-04-16T12:00:03.942Z,15.59
2023-04-16T12:02:32.747Z,15.70
2023-04-16T12:04:59.690Z,15.99
2023-04-16T12:07:26.266Z,16.18
2023-04-16T12:09:52.729Z,15.74
2023-04-16T12:12:22.055Z,15.93
2023-04-16T12:14:48.511Z,16.04
2023-04-16T12:17:15.130Z,16.24
2023-04-16T12:19:42.047Z,15.86
2023-04-16T12:22:08.770Z,15.91
2023-04-16T12:24:35.307Z,15.53
2023-04-16T12:29:33.049Z,16.34
2023-04-16T12:32:02.093Z,16.41
2023-04-16T12:34:48.857Z,16.48
2023-04-16T12:37:15.685Z,16.41
2023-04-16T12:39:43.328Z,16.57
2023-04-16T12:42:10.597Z,16.58
2023-04-16T12:44:37.235Z,15.41
2023-04-16T12:47:04.785Z,14.90
2023-04-16T12:49:32.336Z,14.91
2023-04-16T12:51:59.617Z,14.95
2023-04-16T12:54:27.856Z,15.18
2023-04-16T12:56:54.682Z,15.65
2023-04-16T12:59:23.578Z,15.78
2023-04-16T13:01:50.425Z,15.98
2023-04-16T13:04:17.336Z,16.05
2023-04-16T13:06:46.403Z,15.98
2023-04-16T13:09:13.016Z,15.67
2023-04-16T13:11:39.514Z,15.90
2023-04-16T13:14:06.093Z,16.03
2023-04-16T13:16:32.586Z,16.12
2023-04-16T13:18:59.122Z,16.19
2023-04-16T13:21:25.933Z,16.12
2023-04-16T13:23:52.516Z,16.07
2023-04-16T13:26:18.946Z,16.10
2023-04-16T13:28:46.591Z,15.67
2023-04-16T13:31:13.135Z,15.91
2023-04-16T13:33:39.619Z,15.76
2023-04-16T13:36:06.604Z,15.73
2023-04-16T13:38:33.392Z,15.74
2023-04-16T13:40:59.996Z,15.22
2023-04-16T13:43:26.574Z,14.98
2023-04-16T13:45:53.298Z,15.32
2023-04-16T13:48:19.835Z,15.52
2023-04-16T13:50:47.576Z,15.54
2023-04-16T13:53:14.161Z,15.47
2023-04-16T13:55:40.646Z,15.67
2023-04-16T13:58:14.863Z,15.61
2023-04-16T14:00:41.819Z,15.23
2023-04-16T14:03:08.834Z,15.42
2023-04-16T14:05:35.423Z,15.62
2023-04-16T14:08:02.033Z,15.60
2023-04-16T14:10:28.670Z,15.57
2023-04-16T14:12:55.981Z,15.08
2023-04-16T14:15:22.669Z,15.23
2023-04-16T14:17:50.171Z,14.96
2023-04-16T14:20:16.633Z,14.81
2023-04-16T14:22:43.492Z,14.02
2023-04-16T14:25:10.062Z,13.88
2023-04-16T14:27:36.638Z,13.97
2023-04-16T14:30:03.249Z,13.77
2023-04-16T14:32:29.795Z,13.78
2023-04-16T14:34:56.709Z,13.43
2023-04-16T14:37:23.612Z,13.03
2023-04-16T14:39:52.589Z,12.48
2023-04-16T14:42:19.417Z,11.99
2023-04-16T14:44:46.004Z,11.06
2023-04-16T14:47:16.285Z,11.80
2023-04-16T14:49:43.177Z,11.52
2023-04-16T14:52:10.043Z,11.52
2023-04-16T14:54:37.992Z,11.80
2023-04-16T14:57:07.859Z,11.07
2023-04-16T14:59:34.548Z,11.39
2023-04-16T15:02:01.129Z,11.98
2023-04-16T15:04:28.368Z,12.21
2023-04-16T15:06:55.592Z,11.49
2023-04-16T15:09:22.317Z,12.17
2023-04-16T15:11:48.840Z,12.77
2023-04-16T15:14:15.308Z,12.85
2023-04-16T15:16:41.965Z,13.24
2023-04-16T15:19:09.168Z,13.23
2023-04-16T15:21:35.866Z,13.55
2023-04-16T15:24:04.510Z,13.95
2023-04-16T15:26:31.080Z,13.88
2023-04-16T15:28:57.895Z,12.63
2023-04-16T15:31:24.479Z,11.96
2023-04-16T15:33:51.137Z,12.62
2023-04-16T15:36:20.111Z,13.19
2023-04-16T15:38:46.673Z,13.62
2023-04-16T15:41:13.465Z,13.51
2023-04-16T15:43:40.044Z,12.26
2023-04-16T15:46:06.645Z,11.90
2023-04-16T15:48:33.566Z,12.22
2023-04-16T15:51:00.416Z,11.48
2023-04-16T15:53:27.185Z,11.59
2023-04-16T15:55:54.009Z,11.78
2023-04-16T15:58:20.525Z,11.91
2023-04-16T16:00:47.061Z,12.31
2023-04-16T16:03:13.731Z,11.97
2023-04-16T16:05:40.409Z,12.03
2023-04-16T16:08:08.771Z,11.45
2023-04-16T16:10:35.386Z,11.09
2023-04-16T16:13:01.947Z,10.77
2023-04-16T16:15:29.323Z,10.69
2023-04-16T16:17:55.976Z,10.64
2023-04-16T16:20:22.530Z,10.60
2023-04-16T16:22:49.428Z,10.90
2023-04-16T16:25:15.933Z,10.90
2023-04-16T16:27:42.446Z,11.49
2023-04-16T16:30:10.311Z,11.92
2023-04-16T16:32:37.198Z,12.57
2023-04-16T16:35:03.758Z,12.09
2023-04-16T16:37:30.369Z,11.95
2023-04-16T16:39:57.000Z,11.54
2023-04-16T16:42:23.555Z,10.84
2023-04-16T16:44:50.252Z,10.44
2023-04-16T16:47:17.140Z,10.20
2023-04-16T16:49:44.462Z,10.70
2023-04-16T16:52:11.212Z,10.45
2023-04-16T16:54:38.057Z,10.70
2023-04-16T16:57:05.447Z,11.42
2023-04-16T16:59:33.814Z,11.29
2023-04-16T17:02:00.363Z,11.54
2023-04-16T17:04:29.123Z,10.66
2023-04-16T17:06:55.698Z,10.58
2023-04-16T17:09:22.488Z,10.53
2023-04-16T17:11:49.330Z,10.98
2023-04-16T17:14:15.962Z,10.42
2023-04-16T17:16:42.534Z,10.63
2023-04-16T17:19:09.434Z,10.71
2023-04-16T17:21:36.234Z,10.75
2023-04-16T17:24:03.020Z,10.18
2023-04-16T17:26:29.657Z,10.47
2023-04-16T17:28:56.100Z,11.65
2023-04-16T17:31:23.480Z,12.08
2023-04-16T17:33:51.739Z,12.19
2023-04-16T17:36:18.986Z,12.64
2023-04-16T17:38:45.760Z,12.52
2023-04-16T17:41:14.426Z,12.55
2023-04-16T17:43:40.984Z,11.76
2023-04-16T17:46:09.935Z,11.67
2023-04-16T17:48:36.708Z,11.99
2023-04-16T17:51:03.626Z,13.11
2023-04-16T17:53:30.161Z,12.60
2023-04-16T17:55:57.040Z,12.73
2023-04-16T17:58:23.974Z,13.43
2023-04-16T18:00:51.137Z,13.80
2023-04-16T18:03:19.973Z,13.86
2023-04-16T18:05:48.145Z,14.03
2023-04-16T18:08:16.739Z,13.26
2023-04-16T18:10:45.268Z,13.61
2023-04-16T18:13:11.934Z,14.01
2023-04-16T18:15:38.621Z,14.09
2023-04-16T18:18:05.224Z,13.97
2023-04-16T18:20:34.408Z,12.83
2023-04-16T18:23:01.212Z,11.83
2023-04-16T18:25:34.350Z,12.23
2023-04-16T18:28:01.900Z,12.25
2023-04-16T18:30:28.793Z,12.66
2023-04-16T18:33:19.460Z,12.88
2023-04-16T18:35:41.953Z,13.31
2023-04-16T18:38:08.459Z,12.90
2023-04-16T18:40:35.120Z,12.57
2023-04-16T18:43:01.899Z,13.28
2023-04-16T18:45:34.302Z,13.25
2023-04-16T18:48:01.159Z,12.14
2023-04-16T18:50:27.719Z,11.45
2023-04-16T18:52:54.372Z,11.13
2023-04-16T18:55:21.208Z,12.15
2023-04-16T18:57:48.601Z,12.85
2023-04-16T19:00:17.422Z,12.16
2023-04-16T19:02:44.713Z,12.50
2023-04-16T19:05:11.470Z,12.61
2023-04-16T19:07:38.330Z,13.03
2023-04-16T19:10:05.000Z,13.35
2023-04-16T19:12:34.383Z,13.45
2023-04-16T19:15:01.056Z,13.53
2023-04-16T19:17:27.850Z,13.44
2023-04-16T19:19:54.684Z,13.45
2023-04-16T19:22:21.291Z,12.79
2023-04-16T19:24:47.912Z,13.33
2023-04-16T19:27:14.695Z,13.37
2023-04-16T19:29:41.324Z,12.91
2023-04-16T19:32:08.251Z,12.94
2023-04-16T19:34:35.213Z,13.30
2023-04-16T19:37:02.202Z,13.42
2023-04-16T19:39:28.832Z,12.93
2023-04-16T19:41:56.222Z,13.30
2023-04-16T19:44:22.877Z,13.04
2023-04-16T19:46:49.495Z,12.83
2023-04-16T19:49:16.113Z,13.05
2023-04-16T19:51:42.905Z,13.08
2023-04-16T19:54:09.759Z,12.86
2023-04-16T19:56:36.364Z,12.12
2023-04-16T19:59:03.900Z,12.83
2023-04-16T20:01:30.813Z,12.40
2023-04-16T20:03:59.440Z,12.18
2023-04-16T20:06:26.107Z,11.38
2023-04-16T20:08:52.659Z,12.18
2023-04-16T20:11:21.495Z,12.35
2023-04-16T20:13:52.181Z,12.26
2023-04-16T20:16:18.812Z,12.39
2023-04-16T20:18:45.422Z,12.39
2023-04-16T20:21:12.028Z,11.95
2023-04-16T20:23:39.557Z,12.50
2023-04-16T20:26:06.219Z,12.95
2023-04-16T20:28:32.795Z,13.20
2023-04-16T20:30:59.761Z,13.28
2023-04-16T20:33:26.317Z,12.80
2023-04-16T20:35:53.022Z,13.10
2023-04-16T20:38:19.532Z,12.71
2023-04-16T20:40:46.410Z,12.17
2023-04-16T20:43:13.269Z,12.68
2023-04-16T20:45:40.838Z,12.83
2023-04-16T20:48:07.674Z,12.54
2023-04-16T20:50:34.321Z,12.41
2023-04-16T20:53:00.949Z,12.44
2023-04-16T20:55:27.430Z,12.02
2023-04-16T20:57:56.373Z,11.55
2023-04-16T21:00:22.847Z,11.74
2023-04-16T21:02:51.590Z,11.37
2023-04-16T21:05:18.593Z,11.57
2023-04-16T21:07:45.481Z,11.74
2023-04-16T21:10:11.999Z,11.33
2023-04-16T21:12:38.642Z,11.77
2023-04-16T21:15:05.265Z,12.28
2023-04-16T21:17:31.879Z,12.23
2023-04-16T21:19:58.522Z,12.69
2023-04-16T21:22:25.095Z,12.61
2023-04-16T21:24:51.665Z,11.58
2023-04-16T21:27:18.186Z,11.94
2023-04-16T21:29:44.987Z,11.77
2023-04-16T21:32:11.660Z,11.71
2023-04-16T21:34:42.331Z,10.53
2023-04-16T21:37:08.928Z,10.87
2023-04-16T21:39:35.695Z,10.60
2023-04-16T21:42:02.481Z,9.89
2023-04-16T21:44:29.069Z,9.93
2023-04-16T21:46:55.891Z,10.21
2023-04-16T21:49:22.448Z,9.89
2023-04-16T21:51:49.253Z,9.94
2023-04-16T21:54:16.018Z,10.83
2023-04-16T21:56:42.606Z,11.30
2023-04-16T21:59:09.104Z,11.55
2023-04-16T22:01:35.842Z,11.82
2023-04-16T22:04:02.432Z,11.07
2023-04-16T22:06:29.263Z,11.69
2023-04-16T22:08:56.723Z,10.89
2023-04-16T22:11:23.482Z,11.52
2023-04-16T22:13:49.952Z,10.38
2023-04-16T22:16:17.513Z,10.28
2023-04-16T22:18:44.340Z,10.68
2023-04-16T22:21:11.186Z,10.05
2023-04-16T22:23:37.810Z,9.85
2023-04-16T22:26:04.361Z,10.38
2023-04-16T22:28:31.166Z,10.35
2023-04-16T22:30:57.714Z,10.21
2023-04-16T22:33:24.443Z,9.90
2023-04-16T22:35:52.007Z,10.58
2023-04-16T22:38:18.581Z,10.68
2023-04-16T22:40:45.184Z,10.21
2023-04-16T22:43:14.748Z,9.80
2023-04-16T22:45:41.557Z,10.23
2023-04-16T22:48:08.179Z,10.31
2023-04-16T22:50:35.022Z,10.35
2023-04-16T22:53:01.805Z,10.54
2023-04-16T22:55:30.883Z,10.12
2023-04-16T22:57:59.863Z,9.90
2023-04-16T23:00:26.409Z,9.53
2023-04-16T23:02:54.409Z,9.25
2023-04-16T23:05:21.206Z,9.40
2023-04-16T23:07:47.969Z,10.39
2023-04-16T23:10:15.862Z,9.63
2023-04-16T23:12:42.394Z,9.54
2023-04-16T23:15:08.955Z,9.44
2023-04-16T23:17:35.556Z,10.01
2023-04-16T23:20:02.654Z,10.59
2023-04-16T23:22:29.664Z,10.49
2023-04-16T23:24:56.472Z,10.63
2023-04-16T23:27:23.483Z,9.42
2023-04-16T23:29:50.019Z,9.17
2023-04-16T23:32:16.643Z,9.39
2023-04-16T23:34:43.333Z,9.53
2023-04-16T23:37:10.952Z,9.83
2023-04-16T23:39:37.394Z,10.11
2023-04-16T23:42:04.269Z,9.33
2023-04-16T23:44:30.753Z,9.60
2023-04-16T23:46:57.525Z,9.87
2023-04-16T23:49:24.317Z,10.79
2023-04-16T23:51:51.039Z,9.80
2023-04-16T23:54:18.628Z,10.07
2023-04-16T23:56:45.233Z,10.26
2023-04-16T23:59:12.056Z,10.60
